Time;durP1;ratioP1;P1;durP2;ratioP2;P2;SDS_P1;SDS_P2;PMS_P1;PMS_P2;Temp;Humidity;BMP_temperature;BMP_pressure;BME280_temperature;BME280_humidity;BME280_pressure;Samples;Min_cycle;Max_cycle;Signal;HPM_P1;HPM_P2
2022/09/24 00:01:20;;;;;;;1.30;1.17;;;16.20;44.50;;;;;;4958484;28;20440;-68
2022/09/24 00:03:55;;;;;;;1.70;1.37;;;16.30;44.60;;;;;;4964410;28;20487;-69
2022/09/24 00:06:22;;;;;;;1.30;1.10;;;16.30;46.00;;;;;;4972550;28;20439;-71
2022/09/24 00:08:51;;;;;;;1.30;1.10;;;16.40;43.90;;;;;;4956418;28;20509;-69
2022/09/24 00:11:20;;;;;;;1.30;1.20;;;16.30;43.90;;;;;;5002809;23;20865;-70
2022/09/24 00:13:47;;;;;;;1.30;1.13;;;16.30;44.50;;;;;;4971867;28;20465;-70
2022/09/24 00:16:15;;;;;;;1.30;1.10;;;16.20;45.10;;;;;;4972017;28;20429;-70
2022/09/24 00:18:41;;;;;;;1.30;1.20;;;16.30;45.00;;;;;;4967250;28;20428;-70
2022/09/24 00:21:27;;;;;;;1.30;1.10;;;16.20;45.40;;;;;;4971105;28;20444;-71
2022/09/24 00:23:59;;;;;;;1.30;1.20;;;16.20;45.20;;;;;;4974928;28;20425;-70
2022/09/24 00:29:12;;;;;;;1.30;1.20;;;16.20;44.60;;;;;;4966351;28;20420;-70
2022/09/24 00:31:38;;;;;;;1.30;1.10;;;16.40;44.70;;;;;;4970755;28;20510;-70
2022/09/24 00:34:04;;;;;;;1.30;1.20;;;16.40;44.20;;;;;;4971598;28;20990;-71
2022/09/24 00:36:30;;;;;;;1.30;1.23;;;16.30;44.20;;;;;;4972005;28;20513;-70
2022/09/24 00:38:57;;;;;;;1.30;1.10;;;16.20;44.40;;;;;;4974250;28;20417;-70
2022/09/24 00:41:26;;;;;;;1.30;1.20;;;16.20;44.60;;;;;;4975105;28;20822;-70
2022/09/24 00:43:52;;;;;;;1.30;1.20;;;16.10;45.30;;;;;;4975267;28;20562;-70
2022/09/24 00:46:36;;;;;;;1.30;1.10;;;16.10;44.90;;;;;;4975776;28;20951;-70
2022/09/24 00:49:13;;;;;;;1.87;1.33;;;16.10;44.90;;;;;;4975752;28;20522;-71
2022/09/24 00:51:41;;;;;;;1.30;1.10;;;16.00;44.50;;;;;;4975022;28;20524;-70
2022/09/24 00:54:24;;;;;;;1.30;1.10;;;16.20;44.70;;;;;;4975057;28;20424;-70
2022/09/24 00:56:51;;;;;;;1.30;1.20;;;16.30;44.60;;;;;;4975401;28;20441;-71
2022/09/24 00:59:21;;;;;;;1.30;1.10;;;16.30;44.30;;;;;;4975715;28;20421;-70
2022/09/24 01:01:49;;;;;;;1.30;1.30;;;16.20;44.80;;;;;;4975075;28;20506;-70
2022/09/24 01:04:20;;;;;;;1.30;1.20;;;16.10;44.90;;;;;;4975798;28;20559;-71
2022/09/24 01:06:47;;;;;;;1.30;1.20;;;16.20;44.40;;;;;;4975135;28;20432;-70
2022/09/24 01:09:12;;;;;;;1.30;1.10;;;16.20;45.20;;;;;;4975338;28;20598;-70
2022/09/24 01:11:45;;;;;;;1.30;1.10;;;16.20;45.40;;;;;;4974806;28;20462;-70
2022/09/24 01:14:42;;;;;;;1.30;1.10;;;16.20;45.30;;;;;;4972526;28;20605;-71
2022/09/24 01:17:29;;;;;;;1.50;1.30;;;16.20;45.20;;;;;;4973191;28;20412;-70
2022/09/24 01:20:13;;;;;;;1.30;1.10;;;16.10;45.70;;;;;;4975433;28;20458;-71
2022/09/24 01:23:06;;;;;;;1.30;1.00;;;16.10;46.00;;;;;;4967986;28;20476;-71
2022/09/24 01:25:35;;;;;;;1.30;1.20;;;16.30;43.70;;;;;;4968071;28;20410;-70
2022/09/24 01:29:04;;;;;;;1.30;1.20;;;16.20;44.50;;;;;;4975317;28;20934;-71
2022/09/24 01:31:46;;;;;;;1.30;1.20;;;16.10;45.00;;;;;;4949809;28;20819;-71
2022/09/24 01:34:16;;;;;;;1.30;1.20;;;16.00;45.10;;;;;;4973709;28;20553;-71
2022/09/24 01:36:43;;;;;;;1.30;1.20;;;15.80;45.10;;;;;;4974960;28;21025;-70
2022/09/24 01:39:10;;;;;;;1.30;1.10;;;15.80;45.10;;;;;;4974748;28;20729;-71
2022/09/24 01:41:38;;;;;;;1.30;1.10;;;16.10;45.70;;;;;;4974506;28;20443;-71
2022/09/24 01:44:06;;;;;;;1.30;1.20;;;15.70;44.90;;;;;;4974012;28;20419;-71
2022/09/24 01:46:32;;;;;;;1.30;1.20;;;15.60;45.60;;;;;;4972992;28;20424;-71
2022/09/24 01:48:58;;;;;;;1.30;1.07;;;15.60;47.70;;;;;;4974347;28;20435;-71
2022/09/24 01:51:36;;;;;;;1.30;1.20;;;15.50;47.60;;;;;;4973182;28;20467;-71
2022/09/24 01:54:11;;;;;;;1.30;1.00;;;15.50;46.70;;;;;;4973998;28;20542;-71
2022/09/24 01:56:41;;;;;;;1.30;1.13;;;15.60;45.70;;;;;;4981472;28;20422;-71
2022/09/24 01:59:15;;;;;;;1.30;1.10;;;15.60;46.00;;;;;;4974546;28;20433;-71
2022/09/24 02:01:57;;;;;;;1.30;1.20;;;15.80;46.00;;;;;;4970809;28;20474;-71
2022/09/24 02:04:26;;;;;;;1.30;1.10;;;15.80;46.10;;;;;;4973751;28;20418;-71
2022/09/24 02:07:05;;;;;;;1.30;1.10;;;15.80;45.60;;;;;;4974518;28;20423;-71
2022/09/24 02:09:36;;;;;;;1.30;1.20;;;15.80;45.90;;;;;;4974064;28;20434;-71
2022/09/24 02:12:18;;;;;;;1.30;1.20;;;15.80;46.20;;;;;;4973551;28;20994;-70
2022/09/24 02:14:53;;;;;;;1.30;1.13;;;15.90;45.40;;;;;;4965800;28;20423;-71
2022/09/24 02:17:21;;;;;;;1.30;1.10;;;15.90;45.70;;;;;;4974192;28;20427;-71
2022/09/24 02:19:49;;;;;;;1.30;1.20;;;15.90;45.70;;;;;;4967026;28;20416;-71
2022/09/24 02:22:17;;;;;;;1.30;1.10;;;15.90;46.80;;;;;;4973529;28;20483;-70
2022/09/24 02:24:49;;;;;;;1.30;1.20;;;15.90;45.20;;;;;;4973343;28;20429;-71
2022/09/24 02:27:16;;;;;;;1.30;1.20;;;16.00;44.80;;;;;;4973868;28;20470;-71
2022/09/24 02:29:43;;;;;;;1.33;1.30;;;16.10;45.20;;;;;;4973662;28;20838;-71
2022/09/24 02:32:13;;;;;;;1.30;1.20;;;16.00;45.20;;;;;;4973342;28;20470;-71
2022/09/24 02:34:45;;;;;;;1.30;1.20;;;15.90;45.60;;;;;;4973252;28;20459;-71
2022/09/24 02:37:12;;;;;;;1.30;1.10;;;15.90;45.60;;;;;;4973815;28;20451;-71
2022/09/24 02:39:38;;;;;;;1.30;1.10;;;16.00;45.40;;;;;;4973626;28;20440;-71
2022/09/24 02:42:06;;;;;;;1.30;1.13;;;16.10;44.90;;;;;;4973286;28;20573;-71
2022/09/24 02:44:33;;;;;;;1.30;1.20;;;16.20;44.00;;;;;;4973332;28;20456;-71
2022/09/24 02:46:59;;;;;;;1.30;1.20;;;16.00;44.30;;;;;;4973398;28;20431;-71
2022/09/24 02:49:25;;;;;;;1.30;1.20;;;15.20;47.20;;;;;;4973735;28;20428;-67
2022/09/24 02:51:51;;;;;;;1.30;1.20;;;14.80;49.00;;;;;;4972665;28;20477;-68
2022/09/24 02:54:16;;;;;;;1.30;1.20;;;14.90;49.70;;;;;;4973304;28;20521;-68
2022/09/24 02:56:42;;;;;;;1.30;1.10;;;15.30;47.90;;;;;;4973167;28;20254;-68
2022/09/24 02:59:08;;;;;;;1.30;1.20;;;15.60;47.30;;;;;;4973181;28;20207;-68
2022/09/24 03:01:34;;;;;;;1.30;1.20;;;15.90;46.40;;;;;;4972214;28;20630;-69
2022/09/24 03:04:01;;;;;;;1.30;1.20;;;15.90;45.60;;;;;;4973311;28;20445;-68
2022/09/24 03:06:27;;;;;;;1.30;1.10;;;15.90;45.40;;;;;;4972854;28;20525;-69
2022/09/24 03:08:53;;;;;;;1.30;1.10;;;15.90;45.80;;;;;;4972990;28;20437;-69
2022/09/24 03:11:23;;;;;;;1.30;1.10;;;15.70;45.70;;;;;;4972682;28;20480;-68
2022/09/24 03:13:49;;;;;;;1.30;1.27;;;15.80;45.90;;;;;;4972331;28;20424;-68
2022/09/24 03:16:16;;;;;;;1.30;1.10;;;15.70;45.30;;;;;;4972999;28;20519;-68
2022/09/24 03:18:42;;;;;;;1.30;1.10;;;15.50;46.00;;;;;;4972583;28;20427;-68
2022/09/24 03:21:11;;;;;;;1.30;1.10;;;15.50;46.10;;;;;;4987858;28;20474;-68
2022/09/24 03:23:37;;;;;;;1.30;1.10;;;15.60;47.10;;;;;;4972037;28;20722;-68
2022/09/24 03:26:03;;;;;;;1.30;1.00;;;15.70;45.80;;;;;;4972949;28;20533;-69
2022/09/24 03:28:29;;;;;;;1.37;1.27;;;15.70;45.00;;;;;;4972750;28;20485;-68
2022/09/24 03:31:00;;;;;;;1.30;1.20;;;15.80;44.80;;;;;;4971977;28;20472;-68
2022/09/24 03:33:46;;;;;;;1.30;1.10;;;15.80;44.80;;;;;;4972629;28;20176;-67
2022/09/24 03:36:23;;;;;;;1.30;1.10;;;15.90;44.30;;;;;;4972270;28;20983;-68
2022/09/24 03:38:57;;;;;;;1.30;1.20;;;15.70;44.20;;;;;;4972595;28;20431;-69
2022/09/24 03:41:25;;;;;;;1.30;1.13;;;15.60;44.70;;;;;;4972298;28;20448;-68
2022/09/24 03:43:50;;;;;;;1.30;1.20;;;15.80;44.80;;;;;;4971851;28;20528;-68
2022/09/24 03:46:16;;;;;;;1.30;1.17;;;15.90;44.30;;;;;;4972802;28;20522;-68
2022/09/24 03:48:42;;;;;;;1.30;1.10;;;15.90;45.10;;;;;;4971979;28;20181;-68
2022/09/24 03:51:17;;;;;;;1.30;1.20;;;15.90;45.00;;;;;;4972028;28;20217;-68
2022/09/24 03:53:43;;;;;;;1.30;1.10;;;15.90;45.00;;;;;;4971861;28;20419;-68
2022/09/24 03:56:10;;;;;;;1.30;1.10;;;16.10;43.70;;;;;;4972383;28;20949;-68
2022/09/24 03:58:37;;;;;;;1.30;1.07;;;16.10;44.00;;;;;;4972450;28;20420;-69
2022/09/24 04:01:04;;;;;;;1.30;1.20;;;16.00;44.80;;;;;;4970985;28;20452;-67
2022/09/24 04:03:29;;;;;;;1.30;1.10;;;16.00;44.90;;;;;;4971984;28;20455;-68
2022/09/24 04:05:55;;;;;;;1.30;1.10;;;16.00;44.70;;;;;;4971665;28;20460;-68
2022/09/24 04:08:22;;;;;;;1.30;1.20;;;16.00;44.90;;;;;;4972532;28;20605;-68
2022/09/24 04:10:49;;;;;;;1.30;1.10;;;16.00;45.90;;;;;;4971333;28;20589;-68
2022/09/24 04:13:15;;;;;;;1.43;1.37;;;16.00;45.50;;;;;;4971307;28;20417;-69
2022/09/24 04:15:41;;;;;;;1.40;1.40;;;15.90;45.20;;;;;;4971394;28;20415;-68
2022/09/24 04:18:07;;;;;;;1.30;1.10;;;15.90;44.40;;;;;;4971855;28;20483;-68
2022/09/24 04:20:33;;;;;;;1.30;1.10;;;15.80;44.80;;;;;;4971933;28;20200;-68
2022/09/24 04:22:59;;;;;;;1.30;1.10;;;16.30;45.20;;;;;;4977345;28;20484;-68
2022/09/24 04:25:27;;;;;;;1.30;1.10;;;15.90;44.30;;;;;;4971565;28;20899;-68
2022/09/24 04:28:01;;;;;;;1.30;1.20;;;15.80;45.60;;;;;;4971790;28;20310;-69
2022/09/24 04:30:28;;;;;;;1.30;1.10;;;15.90;45.10;;;;;;4971849;28;20472;-68
2022/09/24 04:32:54;;;;;;;1.30;1.10;;;15.80;45.20;;;;;;4971228;28;20418;-68
2022/09/24 04:35:21;;;;;;;1.30;1.20;;;15.90;44.50;;;;;;4971395;28;20437;-68
2022/09/24 04:37:47;;;;;;;1.30;1.10;;;15.80;45.40;;;;;;4971768;28;20173;-70
2022/09/24 04:40:14;;;;;;;1.30;1.10;;;15.80;44.70;;;;;;4971219;28;20433;-70
2022/09/24 04:42:41;;;;;;;1.30;1.17;;;16.00;44.80;;;;;;4986153;28;20439;-70
2022/09/24 04:45:09;;;;;;;1.30;1.10;;;16.00;45.30;;;;;;4971277;28;20447;-70
2022/09/24 04:47:39;;;;;;;1.30;1.10;;;15.90;45.70;;;;;;4987029;28;20422;-70
2022/09/24 04:50:06;;;;;;;1.30;1.20;;;15.90;45.60;;;;;;4971243;28;20423;-70
2022/09/24 04:52:32;;;;;;;1.30;1.10;;;16.00;45.40;;;;;;4971166;28;20947;-70
2022/09/24 04:55:01;;;;;;;1.30;1.10;;;16.10;44.90;;;;;;4970773;28;20423;-70
2022/09/24 04:57:28;;;;;;;1.30;1.20;;;16.00;45.20;;;;;;4971647;28;20797;-70
2022/09/24 04:59:54;;;;;;;1.30;1.03;;;16.10;45.80;;;;;;4971671;28;20435;-70
2022/09/24 05:02:19;;;;;;;1.30;1.20;;;16.10;45.70;;;;;;4970711;28;20447;-70
2022/09/24 05:04:45;;;;;;;1.30;1.20;;;16.30;44.30;;;;;;4971452;28;20473;-70
2022/09/24 05:07:11;;;;;;;1.30;1.10;;;16.50;45.50;;;;;;4971133;28;20177;-70
2022/09/24 05:09:37;;;;;;;1.30;1.10;;;16.60;46.00;;;;;;4971490;28;20430;-70
2022/09/24 05:12:03;;;;;;;1.30;1.10;;;16.30;46.40;;;;;;4971152;28;20690;-70
2022/09/24 05:14:29;;;;;;;1.30;1.20;;;16.20;46.30;;;;;;4971442;28;20686;-69
2022/09/24 05:16:55;;;;;;;1.30;1.10;;;16.30;46.10;;;;;;4971370;28;20429;-70
2022/09/24 05:19:21;;;;;;;1.40;1.27;;;16.20;46.00;;;;;;4971237;28;20578;-69
2022/09/24 05:21:47;;;;;;;1.30;1.20;;;16.30;45.80;;;;;;4970545;28;20512;-69
2022/09/24 05:24:13;;;;;;;1.60;1.33;;;16.40;46.00;;;;;;4972076;28;20935;-70
2022/09/24 05:29:23;;;;;;;1.30;1.10;;;16.40;46.10;;;;;;4975077;28;20194;-70
2022/09/24 05:31:48;;;;;;;1.30;1.10;;;16.40;46.60;;;;;;4973472;28;20483;-70
2022/09/24 05:34:14;;;;;;;1.30;1.10;;;16.30;47.60;;;;;;4974468;28;20178;-70
2022/09/24 05:36:42;;;;;;;1.30;1.17;;;16.20;46.50;;;;;;4974628;28;20216;-70
2022/09/24 05:39:08;;;;;;;1.30;1.20;;;16.30;47.00;;;;;;4974621;28;20516;-70
2022/09/24 05:41:34;;;;;;;1.30;1.10;;;16.30;47.30;;;;;;4974244;28;20454;-70
2022/09/24 05:43:59;;;;;;;1.30;1.10;;;16.30;47.60;;;;;;4974408;28;20431;-69
2022/09/24 05:46:25;;;;;;;1.30;1.10;;;16.40;46.50;;;;;;4974995;28;20197;-70
2022/09/24 05:48:51;;;;;;;1.33;1.23;;;16.30;46.30;;;;;;4974806;28;20427;-70
2022/09/24 05:51:17;;;;;;;1.30;1.10;;;16.40;47.50;;;;;;4973897;28;20996;-70
2022/09/24 05:53:43;;;;;;;1.30;1.20;;;16.40;47.20;;;;;;4974186;28;20691;-70
2022/09/24 05:56:09;;;;;;;1.30;1.10;;;16.50;47.20;;;;;;4974283;28;20430;-70
2022/09/24 05:58:35;;;;;;;1.30;1.10;;;16.40;47.30;;;;;;4974110;28;20455;-70
2022/09/24 06:01:01;;;;;;;1.30;1.17;;;16.40;47.70;;;;;;4974044;28;20956;-70
2022/09/24 06:03:28;;;;;;;1.30;1.20;;;16.50;47.30;;;;;;4973743;28;20332;-70
2022/09/24 06:05:55;;;;;;;1.30;1.17;;;16.60;47.50;;;;;;4973860;28;20219;-70
2022/09/24 06:08:20;;;;;;;1.30;1.20;;;16.60;47.40;;;;;;4974700;28;20486;-70
2022/09/24 06:10:47;;;;;;;1.30;1.20;;;16.70;47.30;;;;;;4973818;28;20945;-70
2022/09/24 06:13:16;;;;;;;1.30;1.10;;;16.70;47.40;;;;;;4973850;28;20649;-70
2022/09/24 06:15:42;;;;;;;1.30;1.07;;;16.70;47.90;;;;;;4966508;28;20474;-70
2022/09/24 06:18:10;;;;;;;1.30;1.10;;;16.60;48.40;;;;;;4973926;28;20429;-70
2022/09/24 06:20:36;;;;;;;1.30;1.10;;;16.70;48.50;;;;;;4988726;28;20438;-70
2022/09/24 06:23:02;;;;;;;1.30;1.17;;;16.80;48.10;;;;;;4973425;28;20469;-70
2022/09/24 06:25:29;;;;;;;1.33;1.30;;;16.70;48.00;;;;;;4973282;28;20429;-70
2022/09/24 06:28:00;;;;;;;1.30;1.10;;;16.50;48.50;;;;;;4974475;28;20562;-69
2022/09/24 06:30:33;;;;;;;1.50;1.30;;;16.50;48.60;;;;;;4973557;28;20469;-70
2022/09/24 06:33:04;;;;;;;1.30;1.13;;;16.60;48.70;;;;;;4973171;28;20446;-69
2022/09/24 06:35:38;;;;;;;1.30;1.20;;;16.70;48.60;;;;;;4972739;28;20425;-69
2022/09/24 06:38:05;;;;;;;1.37;1.30;;;16.60;48.50;;;;;;4973534;28;20484;-70
2022/09/24 06:40:31;;;;;;;1.30;1.10;;;16.60;48.70;;;;;;4973425;28;20496;-70
2022/09/24 06:42:57;;;;;;;1.30;1.13;;;16.70;48.30;;;;;;4973185;28;20946;-70
2022/09/24 06:45:24;;;;;;;1.30;1.10;;;16.60;48.60;;;;;;4973381;28;20438;-70
2022/09/24 06:47:53;;;;;;;1.30;1.13;;;16.60;48.80;;;;;;4973390;28;20205;-70
2022/09/24 06:50:19;;;;;;;1.30;1.20;;;16.70;48.60;;;;;;4973533;28;20493;-70
2022/09/24 06:52:45;;;;;;;1.40;1.30;;;16.70;48.50;;;;;;4972575;28;21035;-70
2022/09/24 06:55:10;;;;;;;1.30;1.10;;;16.90;48.20;;;;;;4973071;28;20436;-70
2022/09/24 06:57:36;;;;;;;1.30;1.17;;;16.80;47.60;;;;;;4973421;28;20209;-70
2022/09/24 07:00:02;;;;;;;1.30;1.20;;;16.90;47.70;;;;;;4973426;28;20230;-70
2022/09/24 07:02:29;;;;;;;1.30;1.20;;;17.10;48.10;;;;;;4972632;28;20262;-71
2022/09/24 07:04:55;;;;;;;1.30;1.10;;;17.20;49.70;;;;;;4973182;28;21001;-70
2022/09/24 07:07:31;;;;;;;1.30;1.20;;;17.20;49.10;;;;;;4972393;28;20517;-71
2022/09/24 07:09:59;;;;;;;1.40;1.30;;;17.30;49.70;;;;;;4965644;28;20185;-71
2022/09/24 07:12:25;;;;;;;1.30;1.10;;;17.40;48.90;;;;;;4972143;28;20524;-71
2022/09/24 07:14:50;;;;;;;1.30;1.13;;;17.40;49.80;;;;;;4972551;28;20925;-71
2022/09/24 07:17:16;;;;;;;1.30;1.10;;;17.50;50.70;;;;;;4972946;28;20639;-71
2022/09/24 07:19:42;;;;;;;1.50;1.37;;;17.50;50.20;;;;;;4972802;28;20175;-72
2022/09/24 07:22:07;;;;;;;1.30;1.10;;;17.60;50.90;;;;;;4973586;28;20202;-72
2022/09/24 07:24:33;;;;;;;1.30;1.10;;;17.80;49.80;;;;;;4973938;28;20539;-71
2022/09/24 07:26:59;;;;;;;1.30;1.20;;;18.00;49.40;;;;;;4974433;28;20928;-72
2022/09/24 07:29:25;;;;;;;1.30;1.10;;;18.00;49.10;;;;;;4974724;28;20179;-71
2022/09/24 07:31:50;;;;;;;1.30;1.10;;;18.00;48.00;;;;;;4973330;28;20875;-70
2022/09/24 07:34:16;;;;;;;1.30;1.20;;;18.10;48.90;;;;;;4974185;28;20171;-72
2022/09/24 07:36:42;;;;;;;1.30;1.17;;;18.20;48.80;;;;;;4974268;28;20174;-72
2022/09/24 07:39:08;;;;;;;1.30;1.20;;;18.30;47.80;;;;;;4973570;28;20269;-71
2022/09/24 07:41:33;;;;;;;1.30;1.13;;;18.40;47.80;;;;;;4973733;28;20198;-72
2022/09/24 07:43:59;;;;;;;1.30;1.20;;;18.30;49.00;;;;;;4973035;28;20524;-72
2022/09/24 07:46:25;;;;;;;1.30;1.20;;;18.30;48.50;;;;;;4974273;28;20215;-72
2022/09/24 07:48:55;;;;;;;1.30;1.20;;;18.40;49.90;;;;;;4972634;28;20953;-72
2022/09/24 07:51:26;;;;;;;1.30;1.17;;;18.00;50.80;;;;;;4973400;28;20968;-71
2022/09/24 07:53:52;;;;;;;1.30;1.13;;;17.90;51.30;;;;;;4973244;28;20478;-72
2022/09/24 07:56:18;;;;;;;1.30;1.10;;;18.10;51.00;;;;;;4974063;28;20425;-71
2022/09/24 07:58:47;;;;;;;1.77;1.57;;;18.10;50.10;;;;;;4972972;28;20426;-72
2022/09/24 08:01:13;;;;;;;1.30;1.20;;;18.10;50.50;;;;;;4965762;28;20450;-72
2022/09/24 08:03:39;;;;;;;1.30;1.10;;;17.80;52.50;;;;;;4972465;28;20426;-72
2022/09/24 08:06:05;;;;;;;1.30;1.30;;;17.90;52.60;;;;;;4973292;28;20524;-72
2022/09/24 08:08:30;;;;;;;1.30;1.13;;;18.20;51.60;;;;;;4972585;28;20518;-71
2022/09/24 08:10:56;;;;;;;1.30;1.20;;;18.30;51.30;;;;;;4971384;28;20218;-71
2022/09/24 08:13:22;;;;;;;1.30;1.20;;;18.50;50.80;;;;;;4971867;28;20173;-71
2022/09/24 08:15:54;;;;;;;1.30;1.13;;;18.40;52.30;;;;;;4971658;28;20170;-71
2022/09/24 08:18:19;;;;;;;1.30;1.20;;;18.30;52.30;;;;;;4972001;28;20189;-71
2022/09/24 08:20:45;;;;;;;1.40;1.30;;;18.50;52.90;;;;;;4972034;28;20457;-70
2022/09/24 08:23:11;;;;;;;1.30;1.20;;;18.50;52.50;;;;;;4971424;28;20191;-72
2022/09/24 08:25:37;;;;;;;1.30;1.20;;;18.50;52.20;;;;;;4972514;28;20213;-71
2022/09/24 08:28:04;;;;;;;1.30;1.10;;;18.50;52.70;;;;;;4971566;28;20426;-72
2022/09/24 08:30:30;;;;;;;1.30;1.10;;;18.60;53.30;;;;;;4971666;28;20465;-71
2022/09/24 08:32:57;;;;;;;1.30;1.10;;;18.60;53.50;;;;;;4971202;28;20455;-71
2022/09/24 08:35:23;;;;;;;1.30;1.10;;;18.60;54.00;;;;;;4971339;28;20426;-71
2022/09/24 08:37:48;;;;;;;1.30;1.17;;;18.70;55.10;;;;;;4971867;28;20446;-71
2022/09/24 08:40:20;;;;;;;1.30;1.23;;;18.70;55.10;;;;;;4971552;28;20182;-71
2022/09/24 08:43:01;;;;;;;1.73;1.40;;;18.80;54.50;;;;;;4971423;28;20170;-71
2022/09/24 08:48:19;;;;;;;1.30;1.20;;;18.80;54.40;;;;;;4971450;28;20444;-72
2022/09/24 08:50:57;;;;;;;1.30;1.10;;;18.70;54.30;;;;;;4971257;28;20560;-71
2022/09/24 08:53:47;;;;;;;1.30;1.20;;;18.80;54.50;;;;;;4971106;28;20476;-71
2022/09/24 08:56:16;;;;;;;1.67;1.33;;;18.80;55.80;;;;;;4971459;28;20421;-71
2022/09/24 08:58:54;;;;;;;1.40;1.23;;;18.80;56.00;;;;;;4971949;28;20465;-71
2022/09/24 09:01:39;;;;;;;1.30;1.20;;;18.90;54.90;;;;;;4974661;28;20445;-69
2022/09/24 09:04:19;;;;;;;1.30;1.20;;;18.90;55.10;;;;;;4974922;28;20952;-69
2022/09/24 09:07:04;;;;;;;1.57;1.33;;;18.80;55.50;;;;;;4975548;28;20994;-69
2022/09/24 09:09:55;;;;;;;1.30;1.27;;;18.80;54.50;;;;;;4967626;28;20435;-68
2022/09/24 09:12:26;;;;;;;1.30;1.20;;;18.80;55.40;;;;;;4974328;28;20475;-69
2022/09/24 09:15:05;;;;;;;1.30;1.13;;;18.90;54.70;;;;;;4974843;28;20426;-69
2022/09/24 09:17:45;;;;;;;1.30;1.20;;;18.90;55.00;;;;;;4975345;28;20790;-69
2022/09/24 09:20:17;;;;;;;1.30;1.17;;;18.90;55.10;;;;;;4974699;28;21014;-69
2022/09/24 09:22:52;;;;;;;1.30;1.20;;;19.00;55.60;;;;;;4974559;28;20416;-69
2022/09/24 09:25:24;;;;;;;1.30;1.10;;;19.10;55.60;;;;;;4974387;28;20424;-69
2022/09/24 09:28:14;;;;;;;1.30;1.30;;;19.00;55.00;;;;;;4975109;28;20485;-69
2022/09/24 09:31:21;;;;;;;1.30;1.10;;;19.00;56.10;;;;;;4974873;28;20480;-68
2022/09/24 09:34:00;;;;;;;1.30;1.30;;;19.00;56.00;;;;;;4960672;28;20430;-70
2022/09/24 09:36:40;;;;;;;1.30;1.13;;;19.00;55.90;;;;;;4974506;28;20422;-70
2022/09/24 09:39:27;;;;;;;1.30;1.10;;;19.20;53.30;;;;;;4974858;28;20547;-70
2022/09/24 09:41:59;;;;;;;1.30;1.20;;;19.10;51.70;;;;;;4968750;28;20867;-70
2022/09/24 09:44:27;;;;;;;1.30;1.10;;;19.00;52.30;;;;;;4973687;28;20434;-70
2022/09/24 09:47:03;;;;;;;1.30;1.10;;;19.10;52.80;;;;;;4974803;28;20492;-70
2022/09/24 09:49:37;;;;;;;1.30;1.10;;;19.10;51.50;;;;;;4974772;28;20429;-70
2022/09/24 09:52:12;;;;;;;1.30;1.20;;;19.00;53.40;;;;;;4973949;28;20556;-70
2022/09/24 09:54:40;;;;;;;1.30;1.20;;;19.10;54.20;;;;;;4974313;28;20939;-70
2022/09/24 09:57:07;;;;;;;1.30;1.20;;;19.10;55.00;;;;;;4974387;28;20426;-69
2022/09/24 09:59:34;;;;;;;1.30;1.20;;;19.00;54.60;;;;;;4974454;28;20430;-70
2022/09/24 10:02:00;;;;;;;1.30;1.10;;;19.00;55.60;;;;;;4973967;28;20456;-70
2022/09/24 10:04:40;;;;;;;1.30;1.20;;;19.00;56.40;;;;;;4973820;28;20524;-70
2022/09/24 10:07:07;;;;;;;1.30;1.20;;;19.20;56.50;;;;;;4972909;28;21114;-70
2022/09/24 10:09:33;;;;;;;1.30;1.20;;;19.20;57.10;;;;;;4974030;28;20437;-70
2022/09/24 10:12:16;;;;;;;1.30;1.17;;;19.30;57.20;;;;;;4972768;28;20470;-71
2022/09/24 10:14:43;;;;;;;1.30;1.13;;;19.40;57.30;;;;;;4973763;28;21033;-69
2022/09/24 10:17:15;;;;;;;1.30;1.10;;;19.60;55.50;;;;;;4973869;28;20422;-70
2022/09/24 10:19:46;;;;;;;1.30;1.10;;;19.70;57.70;;;;;;4973919;28;20424;-70
2022/09/24 10:22:25;;;;;;;1.30;1.10;;;19.70;56.60;;;;;;4973691;28;20546;-70
2022/09/24 10:24:51;;;;;;;1.30;1.20;;;19.80;55.30;;;;;;4973629;28;20429;-69
2022/09/24 10:27:31;;;;;;;1.30;1.20;;;19.90;56.90;;;;;;4973867;28;20466;-70
2022/09/24 10:32:42;;;;;;;1.30;1.20;;;20.20;54.40;;;;;;4973090;28;20474;-70
2022/09/24 10:35:33;;;;;;;1.30;1.20;;;20.20;53.20;;;;;;4973338;28;20424;-70
2022/09/24 10:37:59;;;;;;;1.30;1.10;;;20.30;53.60;;;;;;4973592;28;20418;-69
2022/09/24 10:40:39;;;;;;;1.30;1.20;;;20.40;54.40;;;;;;4973732;28;20817;-69
2022/09/24 10:43:06;;;;;;;1.30;1.20;;;20.50;53.40;;;;;;4973184;28;20433;-69
2022/09/24 10:45:56;;;;;;;1.30;1.20;;;20.60;50.40;;;;;;4972997;28;20457;-71
2022/09/24 10:48:29;;;;;;;1.30;1.20;;;20.90;48.20;;;;;;4968902;28;20433;-70
2022/09/24 10:51:27;;;;;;;1.30;1.20;;;21.00;49.60;;;;;;4972843;28;20484;-70
2022/09/24 10:54:08;;;;;;;1.30;1.13;;;20.90;50.20;;;;;;4973047;28;20460;-70
2022/09/24 10:56:46;;;;;;;1.30;1.10;;;21.00;50.80;;;;;;4973191;28;20425;-69
2022/09/24 10:59:20;;;;;;;1.30;1.10;;;20.90;51.70;;;;;;4967026;28;20939;-70
2022/09/24 11:02:24;;;;;;;1.30;1.20;;;20.80;46.50;;;;;;4972346;28;20447;-69
2022/09/24 11:05:01;;;;;;;1.30;1.20;;;20.40;46.90;;;;;;4972819;28;20430;-70
2022/09/24 11:07:55;;;;;;;1.30;1.20;;;20.60;50.10;;;;;;4973517;28;20768;-70
2022/09/24 11:10:29;;;;;;;1.30;1.10;;;20.90;47.20;;;;;;4967589;28;20465;-70
2022/09/24 11:13:04;;;;;;;1.30;1.20;;;21.10;44.00;;;;;;4972620;28;20457;-70
2022/09/24 11:15:42;;;;;;;1.30;1.20;;;21.10;45.40;;;;;;4973424;28;20780;-70
2022/09/24 11:18:35;;;;;;;1.30;1.30;;;21.20;47.00;;;;;;4965773;28;20429;-70
2022/09/24 11:21:15;;;;;;;1.30;1.20;;;21.30;45.30;;;;;;4972426;28;20547;-70
2022/09/24 11:24:03;;;;;;;1.30;1.20;;;21.40;48.10;;;;;;4972556;28;20425;-69
2022/09/24 11:27:09;;;;;;;1.30;1.20;;;21.60;47.30;;;;;;4969507;28;20437;-70
2022/09/24 11:29:35;;;;;;;1.30;1.20;;;21.60;46.10;;;;;;4973149;28;20763;-71
2022/09/24 11:32:04;;;;;;;1.30;1.20;;;21.50;43.50;;;;;;4971389;28;20472;-71
2022/09/24 11:34:44;;;;;;;1.30;1.20;;;21.50;43.70;;;;;;4972791;28;20601;-71
2022/09/24 11:37:38;;;;;;;1.30;1.10;;;20.90;43.30;;;;;;4972376;28;20418;-70
2022/09/24 11:40:18;;;;;;;1.30;1.17;;;20.60;44.40;;;;;;4972401;28;21065;-71
2022/09/24 11:42:52;;;;;;;1.30;1.20;;;20.80;46.80;;;;;;4971976;28;20443;-71
2022/09/24 11:46:12;;;;;;;1.40;1.20;;;21.10;48.50;;;;;;4965409;28;20456;-71
2022/09/24 11:48:59;;;;;;;1.30;1.20;;;20.70;44.70;;;;;;4942653;28;20421;-72
2022/09/24 11:51:46;;;;;;;1.30;1.10;;;20.70;46.30;;;;;;4972108;28;20829;-71
2022/09/24 11:54:24;;;;;;;1.30;1.20;;;20.40;45.00;;;;;;4972063;28;20440;-71
2022/09/24 11:57:12;;;;;;;1.30;1.13;;;20.30;45.60;;;;;;4972619;28;20434;-72
2022/09/24 11:59:55;;;;;;;1.30;1.20;;;20.40;45.80;;;;;;4967698;28;20467;-71
2022/09/24 12:02:39;;;;;;;1.30;1.13;;;20.70;46.60;;;;;;4971860;28;20539;-72
2022/09/24 12:05:18;;;;;;;1.30;1.20;;;21.10;48.20;;;;;;4971883;28;20504;-71
2022/09/24 12:07:48;;;;;;;1.30;1.20;;;20.90;45.00;;;;;;4972536;28;20430;-71
2022/09/24 12:10:31;;;;;;;1.30;1.10;;;20.90;44.60;;;;;;4971420;28;20428;-71
2022/09/24 12:13:05;;;;;;;1.30;1.20;;;21.00;43.50;;;;;;4971523;28;20952;-71
2022/09/24 12:15:46;;;;;;;1.30;1.10;;;21.10;47.40;;;;;;4965768;28;20417;-71
2022/09/24 12:18:26;;;;;;;1.30;1.20;;;21.30;46.40;;;;;;4971634;28;20421;-71
2022/09/24 12:21:15;;;;;;;1.30;1.20;;;21.40;46.70;;;;;;4971595;28;20463;-71
2022/09/24 12:23:45;;;;;;;1.30;1.10;;;21.40;47.20;;;;;;4971701;28;20953;-71
2022/09/24 12:26:15;;;;;;;1.30;1.20;;;21.40;44.40;;;;;;4971542;28;20925;-70
2022/09/24 12:35:18;;;;;;;1.30;1.13;;;20.70;44.50;;;;;;4965752;28;20424;-68
2022/09/24 12:37:46;;;;;;;1.30;1.20;;;19.70;49.30;;;;;;4965533;28;20832;-68
2022/09/24 12:40:30;;;;;;;1.30;1.20;;;19.30;51.50;;;;;;4971830;28;20937;-71
2022/09/24 12:42:58;;;;;;;1.30;1.20;;;19.80;53.40;;;;;;4971185;28;20800;-70
2022/09/24 12:45:25;;;;;;;1.30;1.27;;;19.60;49.40;;;;;;4971578;28;20466;-71
2022/09/24 12:47:54;;;;;;;1.30;1.13;;;19.50;50.00;;;;;;4971442;28;20482;-71
2022/09/24 12:50:23;;;;;;;1.30;1.20;;;19.60;48.60;;;;;;4971248;28;20800;-70
2022/09/24 12:52:50;;;;;;;1.30;1.23;;;19.80;49.70;;;;;;4971013;28;20437;-71
2022/09/24 12:55:27;;;;;;;1.30;1.20;;;19.50;50.70;;;;;;4971130;28;20986;-71
2022/09/24 12:58:04;;;;;;;1.30;1.20;;;19.70;49.60;;;;;;4965765;28;20971;-71
2022/09/24 13:00:35;;;;;;;1.30;1.10;;;19.50;51.80;;;;;;4971819;28;20460;-70
2022/09/24 13:03:02;;;;;;;1.30;1.20;;;19.90;52.20;;;;;;4970693;28;20426;-68
2022/09/24 13:05:46;;;;;;;1.30;1.20;;;20.00;52.70;;;;;;4971465;28;20432;-69
2022/09/24 13:08:24;;;;;;;1.30;1.27;;;20.10;52.80;;;;;;4971597;28;20450;-69
2022/09/24 13:10:59;;;;;;;1.30;1.13;;;20.00;53.70;;;;;;4971117;28;20479;-69
2022/09/24 13:13:27;;;;;;;1.30;1.20;;;20.10;54.70;;;;;;4986256;28;20439;-69
2022/09/24 13:16:04;;;;;;;1.30;1.10;;;20.00;54.80;;;;;;4971309;28;20427;-69
2022/09/24 13:18:32;;;;;;;1.30;1.10;;;20.10;54.60;;;;;;4971520;28;20422;-69
2022/09/24 13:21:07;;;;;;;1.30;1.10;;;20.00;55.30;;;;;;4963362;28;20478;-69
2022/09/24 13:23:53;;;;;;;1.30;1.20;;;20.10;54.20;;;;;;4970978;28;20525;-69
2022/09/24 13:26:33;;;;;;;1.30;1.13;;;20.10;55.30;;;;;;4971400;28;20479;-69
2022/09/24 13:29:01;;;;;;;1.30;1.17;;;20.10;54.20;;;;;;4986406;28;20439;-69